Veuillez saisir l'adresse e-mail associée à votre compte d'utilisateur. Votre identifiant vous sera envoyé à cette adresse.

METAR TAF

[Source: ADDS]
METAR
LFCR 161600Z AUTO 01003KT 340V050 9999 FEW014 SCT020 BKN026 19/17 Q1017 TEMPO 3000 SHRA BKN008 SCT040CB =
LFBA 161600Z AUTO 30014KT 9999 FEW034/// SCT078/// BKN094/// ///CB 26/17 Q1016 TEMPO 4000 SHRA BKN008 BKN030TCU =
LFSL 161600Z AUTO 27005KT 230V300 CAVOK 22/17 Q1016 TEMPO VRB15G25KT 4000 SHRA SCT015 SCT040CB =
LFLW 161530Z AUTO 35004KT 310V020 9999 BKN017 OVC100 19/15 Q1017 TEMPO TSRA BKN020CB =
TAF
LFCR 161100Z 1612/1712 26007KT 9999 SCT018 BKN070 TEMPO 1612/1618 3000 SHRA BKN008 SCT040CB PROB30 TEMPO 1612/1615 VRB15G25KT -TSRA BECMG 1623/1701 BKN005 TEMPO 1701/1706 2000 BR BKN002 BECMG 1707/1709 BKN012 BECMG 1709/1711 SCT020 =
LFBA 161400Z 1615/1624 28010KT 9999 SCT030 PROB30 TEMPO 1615/1618 4000 SHRA BKN008 BKN030TCU =
LFSL 161400Z 1615/1624 29008KT 9999 SCT020 SCT050 PROB40 TEMPO 1615/1620 VRB15G25KT 4000 SHRA SCT015 SCT040CB =
LFLW 161400Z 1615/1624 33008KT 9999 FEW035CB BKN080 PROB40 TEMPO 1615/1621 SHRA PROB30 TEMPO 1615/1618 TSRA BKN020CB =
SR / SS: 04:25 / 19:35 UTC (LFCC 2018-07-16)